Time;durP1;ratioP1;P1;durP2;ratioP2;P2;SDS_P1;SDS_P2;PMS_P1;PMS_P2;Temp;Humidity;BMP_temperature;BMP_pressure;BME280_temperature;BME280_humidity;BME280_pressure;Samples;Min_cycle;Max_cycle;Signal;HPM_P1;HPM_P2
2023/10/05 00:10:53;;;;;;;;;;;15.00;99.90;;;;;;8405137;28;20016;-71
2023/10/05 00:15:14;;;;;;;;;;;15.00;99.90;;;;;;8416720;28;19933;-70
2023/10/05 00:19:18;;;;;;;;;;;15.00;99.90;;;;;;8409548;28;19923;-70
2023/10/05 00:23:20;;;;;;;;;;;15.00;99.90;;;;;;8403248;28;19964;-70
2023/10/05 00:27:22;;;;;;;;;;;15.00;99.90;;;;;;8407675;28;19924;-71
2023/10/05 00:31:24;;;;;;;;;;;15.00;99.90;;;;;;8398980;28;19924;-70
2023/10/05 00:35:33;;;;;;;;;;;15.00;99.90;;;;;;8407878;28;20366;-71
2023/10/05 00:39:36;;;;;;;;;;;15.00;99.90;;;;;;8416121;28;19924;-71
2023/10/05 00:43:38;;;;;;;;;;;14.90;99.90;;;;;;8384003;28;19978;-70
2023/10/05 00:47:43;;;;;;;;;;;15.00;99.90;;;;;;8402352;28;20311;-69
2023/10/05 00:56:12;;;;;;;;;;;15.00;99.90;;;;;;8408718;28;19925;-70
2023/10/05 01:00:27;;;;;;;;;;;15.00;99.90;;;;;;8406466;28;19924;-71
2023/10/05 01:09:32;;;;;;;;;;;15.00;99.90;;;;;;8281722;28;20314;-70
2023/10/05 01:13:34;;;;;;;;;;;15.00;99.90;;;;;;8408422;28;19924;-70
2023/10/05 01:17:36;;;;;;;;;;;15.00;99.90;;;;;;8383857;28;20145;-70
2023/10/05 01:21:39;;;;;;;;;;;15.00;99.90;;;;;;8410016;28;20372;-70
2023/10/05 01:25:41;;;;;;;;;;;15.00;99.90;;;;;;8411803;28;20441;-71
2023/10/05 01:29:43;;;;;;;;;;;15.00;99.90;;;;;;8416692;28;19974;-70
2023/10/05 01:44:25;;;;;;;;;;;14.90;99.90;;;;;;8420016;28;19954;-70
2023/10/05 01:48:28;;;;;;;;;;;14.90;99.90;;;;;;8415687;28;19931;-71
2023/10/05 01:52:30;;;;;;;;;;;14.90;99.90;;;;;;8409732;28;20544;-71
2023/10/05 01:56:32;;;;;;;;;;;14.90;99.90;;;;;;8392409;28;19976;-71
2023/10/05 02:00:39;;;;;;;;;;;14.80;99.90;;;;;;8411102;28;19951;-71
2023/10/05 02:04:45;;;;;;;;;;;14.80;99.90;;;;;;8416104;28;19946;-70
2023/10/05 02:08:47;;;;;;;;;;;14.80;99.90;;;;;;8387541;28;20376;-70
2023/10/05 02:12:52;;;;;;;;;;;14.80;99.90;;;;;;8407879;28;19924;-70
2023/10/05 02:16:54;;;;;;;;;;;14.80;99.90;;;;;;8406055;28;19925;-70
2023/10/05 02:21:09;;;;;;;;;;;14.80;99.90;;;;;;8423690;28;20394;-71
2023/10/05 02:25:12;;;;;;;;;;;14.80;99.90;;;;;;8422532;28;19924;-71
2023/10/05 02:29:14;;;;;;;;;;;14.70;99.90;;;;;;8415585;28;20445;-70
2023/10/05 02:33:20;;;;;;;;;;;14.70;99.90;;;;;;8419197;28;19932;-71
2023/10/05 03:12:44;;;;;;;;;;;14.60;99.90;;;;;;8407655;28;19935;-71
2023/10/05 03:16:56;;;;;;;;;;;14.60;99.90;;;;;;8404989;28;19924;-71
2023/10/05 03:20:58;;;;;;;;;;;14.60;99.90;;;;;;8419182;28;19931;-71
2023/10/05 03:24:59;;;;;;;;;;;14.60;99.90;;;;;;8419406;28;20081;-69
2023/10/05 03:39:25;;;;;;;;;;;14.50;99.90;;;;;;8416892;28;19923;-71
2023/10/05 03:43:27;;;;;;;;;;;14.40;99.90;;;;;;8382379;28;19967;-70
2023/10/05 03:47:37;;;;;;;;;;;14.40;99.90;;;;;;8392665;28;19928;-71
2023/10/05 03:51:42;;;;;;;;;;;14.30;99.90;;;;;;8417787;28;19924;-70
2023/10/05 04:10:55;;;;;;;;;;;14.20;99.90;;;;;;8405348;28;20343;-70
2023/10/05 04:14:57;;;;;;;;;;;14.20;99.90;;;;;;8404636;28;19924;-70
2023/10/05 04:18:59;;;;;;;;;;;14.20;99.90;;;;;;8401074;28;19925;-71
2023/10/05 04:33:08;;;;;;;;;;;14.10;99.90;;;;;;8401684;28;19943;-71
2023/10/05 04:42:11;;;;;;;;;;;14.10;99.90;;;;;;8413022;28;20015;-71
2023/10/05 04:46:17;;;;;;;;;;;14.10;99.90;;;;;;8403228;28;19932;-70
2023/10/05 04:50:19;;;;;;;;;;;14.10;99.90;;;;;;8416069;28;20303;-71
2023/10/05 04:54:25;;;;;;;;;;;14.10;99.90;;;;;;8428899;28;19931;-70
2023/10/05 04:58:53;;;;;;;;;;;14.10;99.90;;;;;;8426948;28;20395;-70
2023/10/05 05:07:35;;;;;;;;;;;14.10;99.90;;;;;;8423352;28;20333;-71
2023/10/05 05:11:49;;;;;;;;;;;14.00;99.90;;;;;;8424115;28;19924;-70
2023/10/05 05:15:51;;;;;;;;;;;14.00;99.90;;;;;;8420864;28;19928;-71
2023/10/05 05:19:53;;;;;;;;;;;14.10;99.90;;;;;;8423335;28;19978;-70
2023/10/05 05:23:54;;;;;;;;;;;14.10;99.90;;;;;;8424526;28;19931;-71
2023/10/05 05:28:01;;;;;;;;;;;14.10;99.90;;;;;;8425301;28;19924;-72
2023/10/05 05:32:15;;;;;;;;;;;14.00;99.90;;;;;;8419973;28;19973;-71
2023/10/05 05:46:04;;;;;;;;;;;14.10;99.90;;;;;;8421491;28;19934;-70
2023/10/05 05:50:07;;;;;;;;;;;14.10;99.90;;;;;;8414066;28;19924;-71
2023/10/05 05:54:10;;;;;;;;;;;14.00;99.90;;;;;;8393332;28;19925;-70
2023/10/05 06:03:11;;;;;;;;;;;14.00;99.90;;;;;;8421686;28;19962;-70
2023/10/05 06:07:13;;;;;;;;;;;14.00;99.90;;;;;;8420325;28;19924;-71
2023/10/05 06:11:15;;;;;;;;;;;14.00;99.90;;;;;;8417992;28;19932;-71
2023/10/05 06:15:17;;;;;;;;;;;14.00;99.90;;;;;;8427328;28;19974;-71
2023/10/05 06:24:22;;;;;;;;;;;14.00;99.90;;;;;;8423751;28;19927;-71
2023/10/05 06:28:23;;;;;;;;;;;14.10;99.90;;;;;;8429072;28;19977;-71
2023/10/05 06:32:25;;;;;;;;;;;14.10;99.90;;;;;;8426832;28;19931;-71
2023/10/05 06:36:27;;;;;;;;;;;14.10;99.90;;;;;;8410214;28;19958;-71
2023/10/05 06:40:29;;;;;;;;;;;14.10;99.90;;;;;;8420734;28;19977;-71
2023/10/05 06:44:31;;;;;;;;;;;14.20;99.90;;;;;;8410965;28;20028;-72
2023/10/05 06:48:36;;;;;;;;;;;14.20;99.90;;;;;;8407208;28;19931;-71
2023/10/05 06:52:46;;;;;;;;;;;14.20;99.90;;;;;;8429736;28;19924;-71
2023/10/05 06:56:49;;;;;;;;;;;14.20;99.90;;;;;;8428118;28;19971;-71
2023/10/05 07:00:52;;;;;;;;;;;14.20;99.90;;;;;;8423203;28;19940;-71
2023/10/05 07:04:53;;;;;;;;;;;14.20;99.90;;;;;;8424118;28;19931;-71
2023/10/05 07:08:55;;;;;;;;;;;14.30;99.90;;;;;;8416935;28;19931;-71
2023/10/05 07:12:58;;;;;;;;;;;14.30;99.90;;;;;;8401913;28;19928;-71
2023/10/05 07:17:00;;;;;;;;;;;14.30;99.90;;;;;;8423321;28;20363;-71
2023/10/05 07:21:04;;;;;;;;;;;14.30;99.90;;;;;;8422593;28;19928;-71
2023/10/05 07:25:06;;;;;;;;;;;14.30;99.90;;;;;;8426240;28;19924;-71
2023/10/05 07:29:08;;;;;;;;;;;14.30;99.90;;;;;;8427318;28;19932;-71
2023/10/05 07:33:24;;;;;;;;;;;14.30;99.90;;;;;;8412224;28;19931;-71
2023/10/05 07:37:26;;;;;;;;;;;14.40;99.90;;;;;;8425126;28;19928;-70
2023/10/05 07:41:29;;;;;;;;;;;14.40;99.90;;;;;;8402867;28;19927;-71
2023/10/05 07:45:31;;;;;;;;;;;14.40;99.90;;;;;;8406143;28;19924;-70
2023/10/05 07:49:36;;;;;;;;;;;14.50;99.90;;;;;;8418504;28;20303;-71
2023/10/05 07:53:37;;;;;;;;;;;14.50;99.90;;;;;;8423296;28;19996;-71
2023/10/05 07:57:39;;;;;;;;;;;14.60;99.90;;;;;;8404430;28;19924;-71
2023/10/05 08:01:41;;;;;;;;;;;14.60;99.90;;;;;;8421943;28;19942;-71
2023/10/05 08:05:43;;;;;;;;;;;14.70;99.90;;;;;;8404749;28;20424;-70
2023/10/05 08:09:44;;;;;;;;;;;14.70;99.90;;;;;;8409570;28;20034;-71
2023/10/05 08:13:47;;;;;;;;;;;14.80;99.90;;;;;;8410521;28;19925;-71
2023/10/05 08:17:51;;;;;;;;;;;14.90;99.90;;;;;;8424727;28;19967;-71
2023/10/05 08:21:53;;;;;;;;;;;15.00;99.90;;;;;;8421360;28;20011;-71
2023/10/05 08:25:57;;;;;;;;;;;15.00;99.90;;;;;;8425938;28;20272;-71
2023/10/05 08:30:00;;;;;;;;;;;15.10;99.90;;;;;;8437031;28;19924;-71
2023/10/05 08:34:03;;;;;;;;;;;15.20;99.90;;;;;;8431207;28;20040;-71
2023/10/05 08:38:08;;;;;;;;;;;15.30;99.90;;;;;;8434168;28;19924;-70
2023/10/05 08:42:11;;;;;;;;;;;15.30;99.90;;;;;;8408778;28;19925;-70
2023/10/05 08:46:14;;;;;;;;;;;15.40;99.90;;;;;;8432106;28;19970;-71
2023/10/05 08:50:21;;;;;;;;;;;15.50;99.90;;;;;;8412785;28;19946;-71
2023/10/05 08:54:28;;;;;;;;;;;15.60;99.90;;;;;;8431430;28;19924;-71
2023/10/05 08:58:29;;;;;;;;;;;15.60;99.90;;;;;;8437843;28;19977;-71
2023/10/05 09:02:31;;;;;;;;;;;15.70;99.90;;;;;;8432024;28;19967;-72
2023/10/05 09:06:43;;;;;;;;;;;15.70;99.90;;;;;;8438379;28;20452;-70
2023/10/05 09:10:45;;;;;;;;;;;15.70;99.90;;;;;;8415042;28;19924;-70
2023/10/05 09:15:02;;;;;;;;;;;15.70;99.90;;;;;;8433552;28;20279;-70
2023/10/05 09:19:04;;;;;;;;;;;15.70;99.90;;;;;;8412757;28;19968;-70
2023/10/05 09:23:09;;;;;;;;;;;15.70;99.90;;;;;;8432283;28;19924;-70
2023/10/05 09:27:15;;;;;;;;;;;15.70;99.90;;;;;;8437440;28;19923;-71
2023/10/05 09:31:19;;;;;;;;;;;15.70;99.90;;;;;;8425765;28;19978;-71
2023/10/05 09:35:26;;;;;;;;;;;15.80;99.90;;;;;;8410482;28;19974;-71
2023/10/05 09:39:28;;;;;;;;;;;15.80;99.90;;;;;;8421281;28;19928;-71
2023/10/05 09:43:33;;;;;;;;;;;15.80;99.90;;;;;;8429236;28;19928;-71
2023/10/05 09:47:35;;;;;;;;;;;15.90;99.90;;;;;;8433029;28;19924;-71
2023/10/05 09:51:42;;;;;;;;;;;15.90;99.90;;;;;;8427952;28;19925;-71
2023/10/05 09:55:53;;;;;;;;;;;16.00;99.90;;;;;;8403751;28;19924;-71
2023/10/05 09:59:58;;;;;;;;;;;16.10;99.90;;;;;;8424389;28;19924;-71
2023/10/05 10:04:00;;;;;;;;;;;16.10;99.90;;;;;;8413034;28;19959;-71
2023/10/05 10:08:09;;;;;;;;;;;16.10;99.90;;;;;;8420959;28;19925;-71
2023/10/05 10:12:31;;;;;;;;;;;16.10;99.90;;;;;;8403936;28;19932;-71
2023/10/05 10:16:33;;;;;;;;;;;16.20;99.90;;;;;;8423310;28;19932;-70
2023/10/05 10:20:36;;;;;;;;;;;16.20;99.90;;;;;;8411157;28;19964;-71
2023/10/05 10:24:37;;;;;;;;;;;16.20;99.90;;;;;;8412938;28;19923;-70
2023/10/05 10:28:43;;;;;;;;;;;16.30;99.90;;;;;;8412825;28;19924;-70
2023/10/05 10:33:12;;;;;;;;;;;16.40;99.90;;;;;;8415494;28;19928;-70
2023/10/05 10:37:34;;;;;;;;;;;16.50;99.90;;;;;;8430401;28;19924;-70
2023/10/05 10:41:52;;;;;;;;;;;16.70;99.90;;;;;;8420914;28;19931;-70
2023/10/05 10:45:55;;;;;;;;;;;16.80;99.90;;;;;;8407056;28;20387;-70
2023/10/05 10:50:11;;;;;;;;;;;17.00;99.90;;;;;;8403400;28;19985;-70
2023/10/05 10:54:18;;;;;;;;;;;17.10;99.90;;;;;;8405761;28;20035;-70
2023/10/05 10:58:24;;;;;;;;;;;17.30;99.90;;;;;;8416758;28;19967;-71
2023/10/05 11:02:25;;;;;;;;;;;17.40;99.90;;;;;;8427335;28;20379;-70
2023/10/05 11:06:28;;;;;;;;;;;17.60;99.90;;;;;;8417113;28;19951;-70
2023/10/05 11:10:30;;;;;;;;;;;17.70;99.90;;;;;;8409305;28;19978;-70
2023/10/05 11:14:32;;;;;;;;;;;17.80;99.90;;;;;;8418397;28;19924;-71
2023/10/05 11:18:34;;;;;;;;;;;17.70;99.90;;;;;;8404597;28;19951;-72
2023/10/05 11:22:42;;;;;;;;;;;17.70;99.90;;;;;;8415769;28;20028;-71
2023/10/05 11:27:05;;;;;;;;;;;17.60;99.90;;;;;;8422548;28;19931;-71
2023/10/05 11:31:11;;;;;;;;;;;17.50;99.90;;;;;;8401180;28;19978;-70
2023/10/05 11:35:28;;;;;;;;;;;17.60;99.90;;;;;;8423467;28;19924;-70
2023/10/05 11:39:39;;;;;;;;;;;17.60;99.90;;;;;;8422484;28;20372;-70
2023/10/05 11:43:42;;;;;;;;;;;17.50;99.90;;;;;;8417125;28;19928;-71
2023/10/05 11:47:48;;;;;;;;;;;17.50;99.90;;;;;;8423613;28;19977;-71
2023/10/05 11:51:59;;;;;;;;;;;17.40;99.90;;;;;;8417034;28;20378;-71
2023/10/05 11:56:00;;;;;;;;;;;17.30;99.90;;;;;;8421725;28;20359;-71
2023/10/05 12:00:07;;;;;;;;;;;17.30;99.90;;;;;;8423764;28;20299;-71
2023/10/05 12:04:09;;;;;;;;;;;17.30;99.90;;;;;;8415660;28;19932;-71
2023/10/05 12:08:12;;;;;;;;;;;17.40;99.90;;;;;;8401130;28;19932;-72
2023/10/05 12:12:14;;;;;;;;;;;17.40;99.90;;;;;;8420381;28;19945;-71
2023/10/05 12:16:17;;;;;;;;;;;17.40;99.90;;;;;;8402019;28;19939;-70
2023/10/05 12:20:20;;;;;;;;;;;17.40;99.90;;;;;;8422360;28;19935;-70
2023/10/05 12:24:23;;;;;;;;;;;17.40;99.90;;;;;;8416896;28;19924;-71
2023/10/05 12:28:24;;;;;;;;;;;17.40;99.90;;;;;;8421138;28;19951;-71
2023/10/05 12:32:27;;;;;;;;;;;17.50;99.90;;;;;;8401138;28;20343;-71
2023/10/05 12:36:29;;;;;;;;;;;17.40;99.90;;;;;;8421527;28;19967;-70
2023/10/05 12:40:33;;;;;;;;;;;17.50;99.90;;;;;;8421172;28;19931;-71
2023/10/05 12:44:36;;;;;;;;;;;17.50;99.90;;;;;;8401438;28;19959;-71
2023/10/05 12:48:39;;;;;;;;;;;17.60;99.90;;;;;;8422986;28;19924;-71
2023/10/05 12:52:40;;;;;;;;;;;17.60;99.90;;;;;;8418272;28;19935;-71
2023/10/05 12:56:42;;;;;;;;;;;17.70;99.90;;;;;;8394520;28;19966;-71
2023/10/05 13:00:44;;;;;;;;;;;17.70;99.90;;;;;;8401015;28;19924;-71
2023/10/05 13:04:46;;;;;;;;;;;17.80;99.90;;;;;;8405480;28;19932;-70
2023/10/05 13:08:48;;;;;;;;;;;17.80;99.90;;;;;;8409081;28;19972;-71
2023/10/05 13:12:51;;;;;;;;;;;17.90;99.90;;;;;;8387130;28;20334;-71
2023/10/05 13:16:53;;;;;;;;;;;18.00;99.90;;;;;;8412602;28;19924;-70
2023/10/05 13:20:55;;;;;;;;;;;18.10;99.90;;;;;;8408818;28;20023;-70
2023/10/05 13:24:57;;;;;;;;;;;18.20;99.90;;;;;;8424599;28;20367;-71
2023/10/05 13:28:59;;;;;;;;;;;18.30;99.90;;;;;;8425221;28;19924;-71
2023/10/05 13:33:08;;;;;;;;;;;18.30;99.90;;;;;;8408271;28;19925;-70
2023/10/05 13:37:10;;;;;;;;;;;18.30;99.90;;;;;;8407913;28;20390;-72
2023/10/05 13:41:18;;;;;;;;;;;18.20;99.90;;;;;;8411332;28;19924;-72
2023/10/05 13:45:20;;;;;;;;;;;18.10;99.90;;;;;;8409198;28;19932;-72
2023/10/05 13:49:26;;;;;;;;;;;18.10;99.90;;;;;;8391569;28;19986;-72
2023/10/05 13:53:27;;;;;;;;;;;18.20;99.90;;;;;;8409303;28;19925;-71
2023/10/05 13:57:29;;;;;;;;;;;18.30;99.90;;;;;;8413712;28;19935;-70
2023/10/05 14:01:34;;;;;;;;;;;18.40;99.90;;;;;;8407932;28;19925;-71
2023/10/05 14:05:36;;;;;;;;;;;18.50;99.90;;;;;;8399631;28;20031;-71
2023/10/05 14:09:44;;;;;;;;;;;18.90;99.90;;;;;;8393444;28;20397;-71
2023/10/05 14:13:46;;;;;;;;;;;19.20;99.90;;;;;;8424328;28;19924;-72
2023/10/05 14:17:49;;;;;;;;;;;19.50;99.90;;;;;;8420605;28;19928;-71
2023/10/05 14:21:51;;;;;;;;;;;19.70;99.90;;;;;;8419205;28;20363;-72
2023/10/05 14:25:52;;;;;;;;;;;20.00;99.90;;;;;;8405948;28;20264;-72
2023/10/05 14:29:54;;;;;;;;;;;20.10;99.90;;;;;;8423660;28;19924;-71
2023/10/05 14:33:56;;;;;;;;;;;20.20;99.90;;;;;;8415237;28;19924;-72
2023/10/05 14:37:58;;;;;;;;;;;20.10;99.90;;;;;;8425556;28;19924;-71
2023/10/05 14:42:00;;;;;;;;;;;20.00;99.90;;;;;;8400799;28;19982;-72
2023/10/05 14:46:05;;;;;;;;;;;19.70;99.90;;;;;;8402033;28;19977;-72
2023/10/05 14:50:07;;;;;;;;;;;19.40;99.90;;;;;;8423699;28;20292;-72
2023/10/05 14:54:09;;;;;;;;;;;19.30;99.90;;;;;;8413931;28;19932;-71
2023/10/05 14:58:13;;;;;;;;;;;19.10;99.90;;;;;;8422643;28;19932;-72
2023/10/05 15:02:17;;;;;;;;;;;19.00;99.90;;;;;;8418706;28;20329;-71
2023/10/05 15:06:18;;;;;;;;;;;18.90;99.90;;;;;;8424607;28;20349;-71
2023/10/05 15:10:24;;;;;;;;;;;18.80;99.90;;;;;;8419512;28;22521;-72
2023/10/05 15:14:26;;;;;;;;;;;18.70;99.90;;;;;;8420335;28;19984;-71
2023/10/05 15:18:29;;;;;;;;;;;18.70;99.90;;;;;;8418890;28;19993;-71
2023/10/05 15:22:30;;;;;;;;;;;18.70;99.90;;;;;;8424175;28;19931;-71
2023/10/05 15:26:32;;;;;;;;;;;18.70;99.90;;;;;;8402667;28;19924;-71
2023/10/05 15:30:34;;;;;;;;;;;18.60;99.90;;;;;;8393254;28;20596;-71
2023/10/05 15:34:36;;;;;;;;;;;18.60;99.90;;;;;;8413677;28;19981;-71
2023/10/05 15:38:39;;;;;;;;;;;18.60;99.90;;;;;;8423241;28;19953;-71
2023/10/05 15:42:44;;;;;;;;;;;18.70;99.90;;;;;;8417998;28;19925;-71
2023/10/05 15:46:46;;;;;;;;;;;18.80;99.90;;;;;;8415389;28;19924;-72
2023/10/05 15:50:48;;;;;;;;;;;18.80;99.90;;;;;;8425056;28;19975;-72
2023/10/05 15:54:52;;;;;;;;;;;18.70;99.90;;;;;;8383043;28;20007;-73
2023/10/05 15:58:54;;;;;;;;;;;18.60;99.90;;;;;;8399646;28;19924;-72
2023/10/05 16:02:57;;;;;;;;;;;18.50;99.90;;;;;;8384113;28;20015;-70
2023/10/05 16:07:09;;;;;;;;;;;18.40;99.90;;;;;;8403326;28;20395;-73
2023/10/05 16:11:11;;;;;;;;;;;18.30;99.90;;;;;;8391305;28;20388;-72
2023/10/05 16:15:13;;;;;;;;;;;18.30;99.90;;;;;;8401984;28;19939;-71
2023/10/05 16:19:15;;;;;;;;;;;18.20;99.90;;;;;;8405450;28;19968;-71
2023/10/05 16:23:17;;;;;;;;;;;18.20;99.90;;;;;;8390373;28;19928;-71
2023/10/05 16:27:19;;;;;;;;;;;18.10;99.90;;;;;;8386339;28;19924;-71
2023/10/05 16:31:20;;;;;;;;;;;18.00;99.90;;;;;;8385199;28;19925;-71
2023/10/05 16:35:22;;;;;;;;;;;17.90;99.90;;;;;;8394942;28;20428;-71
2023/10/05 16:39:24;;;;;;;;;;;17.80;99.90;;;;;;8371505;28;19928;-71
2023/10/05 16:43:26;;;;;;;;;;;17.80;99.90;;;;;;8387958;28;19924;-70
2023/10/05 16:47:29;;;;;;;;;;;17.70;99.90;;;;;;8383415;28;20281;-70
2023/10/05 16:51:31;;;;;;;;;;;17.70;99.90;;;;;;8406531;28;19983;-71
2023/10/05 16:55:32;;;;;;;;;;;17.70;99.90;;;;;;8391796;28;19924;-70
2023/10/05 16:59:34;;;;;;;;;;;17.50;99.90;;;;;;8407036;28;19924;-71
2023/10/05 17:03:38;;;;;;;;;;;17.50;99.90;;;;;;8407414;28;19939;-70
2023/10/05 17:07:40;;;;;;;;;;;17.40;99.90;;;;;;8405941;28;20579;-70
2023/10/05 17:11:42;;;;;;;;;;;17.30;99.90;;;;;;8385237;28;20330;-71
2023/10/05 17:15:44;;;;;;;;;;;17.20;99.90;;;;;;8386377;28;19936;-70
2023/10/05 17:19:46;;;;;;;;;;;17.20;99.90;;;;;;8395516;28;19925;-70
2023/10/05 17:23:47;;;;;;;;;;;17.10;99.90;;;;;;8395758;28;20114;-71
2023/10/05 17:27:49;;;;;;;;;;;17.00;99.90;;;;;;8400034;28;19925;-71
2023/10/05 17:31:51;;;;;;;;;;;17.00;99.90;;;;;;8395443;28;19994;-70
2023/10/05 17:35:52;;;;;;;;;;;16.90;99.90;;;;;;8405234;28;19942;-70
2023/10/05 17:39:54;;;;;;;;;;;16.80;99.90;;;;;;8400584;28;19924;-70
2023/10/05 17:43:56;;;;;;;;;;;16.70;99.90;;;;;;8394070;28;23128;-70
2023/10/05 17:47:58;;;;;;;;;;;16.70;99.90;;;;;;8388754;28;19980;-71
2023/10/05 17:52:00;;;;;;;;;;;16.60;99.90;;;;;;8408216;28;19924;-70
2023/10/05 17:56:02;;;;;;;;;;;16.50;99.90;;;;;;8385662;28;20354;-70
2023/10/05 18:00:05;;;;;;;;;;;16.50;99.90;;;;;;8398756;28;20379;-71
2023/10/05 18:04:07;;;;;;;;;;;16.40;99.90;;;;;;8400462;28;20226;-70
2023/10/05 18:08:09;;;;;;;;;;;16.40;99.90;;;;;;8396811;28;19924;-70
2023/10/05 18:12:13;;;;;;;;;;;16.30;99.90;;;;;;8410337;28;19924;-70
2023/10/05 18:16:14;;;;;;;;;;;16.30;99.90;;;;;;8390009;28;19968;-70
2023/10/05 18:20:19;;;;;;;;;;;16.30;99.90;;;;;;8392734;28;19958;-70
2023/10/05 18:24:21;;;;;;;;;;;16.20;99.90;;;;;;8396181;28;20391;-70
2023/10/05 18:28:23;;;;;;;;;;;16.20;99.90;;;;;;8388491;28;19935;-70
2023/10/05 18:32:25;;;;;;;;;;;16.20;99.90;;;;;;8393529;28;20022;-70
2023/10/05 18:36:26;;;;;;;;;;;16.20;99.90;;;;;;8394927;28;19924;-70
2023/10/05 18:40:29;;;;;;;;;;;16.20;99.90;;;;;;8396202;28;19936;-70
2023/10/05 18:44:31;;;;;;;;;;;16.20;99.90;;;;;;8395802;28;19933;-70
2023/10/05 18:48:33;;;;;;;;;;;16.30;99.90;;;;;;8396474;28;19933;-71
2023/10/05 18:52:35;;;;;;;;;;;16.30;99.90;;;;;;8395792;28;20355;-70
2023/10/05 18:56:37;;;;;;;;;;;16.30;99.90;;;;;;8391212;28;19924;-70
2023/10/05 19:00:39;;;;;;;;;;;16.30;99.90;;;;;;8389076;28;19940;-70
2023/10/05 19:04:40;;;;;;;;;;;16.30;99.90;;;;;;8394523;28;20331;-70
2023/10/05 19:08:42;;;;;;;;;;;16.30;99.90;;;;;;8393095;28;20405;-71
2023/10/05 19:17:25;;;;;;;;;;;16.20;99.90;;;;;;8330987;28;19928;-70
2023/10/05 19:21:27;;;;;;;;;;;16.20;99.90;;;;;;8362788;28;19925;-70
2023/10/05 19:25:28;;;;;;;;;;;16.20;99.90;;;;;;8325880;28;20023;-70
2023/10/05 19:29:31;;;;;;;;;;;16.10;99.90;;;;;;8327939;28;19968;-71
2023/10/05 19:33:32;;;;;;;;;;;16.00;99.90;;;;;;8327243;28;19936;-70
2023/10/05 19:37:34;;;;;;;;;;;16.00;99.90;;;;;;8327912;28;20292;-70
2023/10/05 19:41:36;;;;;;;;;;;15.90;99.90;;;;;;8331526;28;19932;-70
2023/10/05 19:45:38;;;;;;;;;;;15.90;99.90;;;;;;8327663;28;20063;-70
2023/10/05 19:49:41;;;;;;;;;;;16.00;99.90;;;;;;8326215;28;19937;-71
2023/10/05 19:53:43;;;;;;;;;;;16.00;99.90;;;;;;8329053;28;19969;-70
2023/10/05 19:57:45;;;;;;;;;;;15.90;99.90;;;;;;8325730;28;19925;-71
2023/10/05 20:01:49;;;;;;;;;;;15.90;99.90;;;;;;8328850;28;20539;-70
2023/10/05 20:05:50;;;;;;;;;;;15.90;99.90;;;;;;8326755;28;19933;-71
2023/10/05 20:09:52;;;;;;;;;;;15.80;99.90;;;;;;8328389;28;19960;-70
2023/10/05 20:13:56;;;;;;;;;;;15.70;99.90;;;;;;8334774;28;20024;-70
2023/10/05 20:17:57;;;;;;;;;;;15.70;99.90;;;;;;8382967;28;19925;-71
2023/10/05 20:22:00;;;;;;;;;;;15.60;99.90;;;;;;8410283;28;20022;-70
2023/10/05 20:26:02;;;;;;;;;;;15.60;99.90;;;;;;8391145;28;19928;-70
2023/10/05 20:30:09;;;;;;;;;;;15.60;99.90;;;;;;8388214;28;19982;-70
2023/10/05 20:34:10;;;;;;;;;;;15.60;99.90;;;;;;8393533;28;19979;-70
2023/10/05 20:38:14;;;;;;;;;;;15.50;99.90;;;;;;8407588;28;19950;-71
2023/10/05 20:42:16;;;;;;;;;;;15.50;99.90;;;;;;8389223;28;20392;-71
2023/10/05 20:46:18;;;;;;;;;;;15.50;99.90;;;;;;8390696;28;20406;-70
2023/10/05 20:50:20;;;;;;;;;;;15.60;99.90;;;;;;8393151;28;19933;-71
2023/10/05 20:54:21;;;;;;;;;;;15.60;99.90;;;;;;8394200;28;19934;-70
2023/10/05 20:58:23;;;;;;;;;;;15.60;99.90;;;;;;8393811;28;19929;-71
2023/10/05 21:02:25;;;;;;;;;;;15.60;99.90;;;;;;8403731;28;19928;-70
2023/10/05 21:06:26;;;;;;;;;;;15.70;99.90;;;;;;8421711;28;19924;-71
2023/10/05 21:10:28;;;;;;;;;;;15.60;99.90;;;;;;8415854;28;20434;-70
2023/10/05 21:14:32;;;;;;;;;;;15.60;99.90;;;;;;8420472;28;19924;-70
2023/10/05 21:18:33;;;;;;;;;;;15.60;99.90;;;;;;8416333;28;20000;-70
2023/10/05 21:22:35;;;;;;;;;;;15.60;99.90;;;;;;8419000;28;19924;-71
2023/10/05 21:26:37;;;;;;;;;;;15.50;99.90;;;;;;8400534;28;19924;-71
2023/10/05 21:30:48;;;;;;;;;;;15.50;99.90;;;;;;8422903;28;19998;-70
2023/10/05 21:34:50;;;;;;;;;;;15.50;99.90;;;;;;8411968;28;19924;-71
2023/10/05 21:38:52;;;;;;;;;;;15.40;99.90;;;;;;8428835;28;20338;-71
2023/10/05 21:42:53;;;;;;;;;;;15.40;99.90;;;;;;8426492;28;19928;-71
2023/10/05 21:46:55;;;;;;;;;;;15.50;99.90;;;;;;8421942;28;19924;-71
2023/10/05 21:50:57;;;;;;;;;;;15.50;99.90;;;;;;8429167;28;19932;-71
2023/10/05 21:54:58;;;;;;;;;;;15.40;99.90;;;;;;8423007;28;19932;-71
2023/10/05 22:04:04;;;;;;;;;;;15.40;99.90;;;;;;8419659;28;19996;-71
2023/10/05 22:08:06;;;;;;;;;;;15.30;99.90;;;;;;8405360;28;20036;-71
2023/10/05 22:12:08;;;;;;;;;;;15.30;99.90;;;;;;8405874;28;19928;-70
2023/10/05 22:16:10;;;;;;;;;;;15.20;99.90;;;;;;8422530;28;19925;-70
2023/10/05 22:20:12;;;;;;;;;;;15.20;99.90;;;;;;8428026;28;20401;-71
2023/10/05 22:24:15;;;;;;;;;;;15.20;99.90;;;;;;8426002;28;19928;-70
2023/10/05 22:33:21;;;;;;;;;;;15.20;99.90;;;;;;8417622;28;19970;-71
2023/10/05 22:37:22;;;;;;;;;;;15.20;99.90;;;;;;8405674;28;20272;-70
2023/10/05 22:41:24;;;;;;;;;;;15.10;99.90;;;;;;8427342;28;19984;-70
2023/10/05 22:45:27;;;;;;;;;;;15.10;99.90;;;;;;8419435;28;19931;-70
2023/10/05 22:49:30;;;;;;;;;;;15.10;99.90;;;;;;8425944;28;19924;-70
2023/10/05 22:53:32;;;;;;;;;;;15.10;99.90;;;;;;8426088;28;19932;-70
2023/10/05 22:57:33;;;;;;;;;;;15.10;99.90;;;;;;8423647;28;19928;-70
2023/10/05 23:01:40;;;;;;;;;;;15.10;99.90;;;;;;8406773;28;19928;-71
2023/10/05 23:05:42;;;;;;;;;;;15.00;99.90;;;;;;8427372;28;19924;-70
2023/10/05 23:09:46;;;;;;;;;;;15.00;99.90;;;;;;8411497;28;20437;-71
2023/10/05 23:45:30;;;;;;;;;;;14.70;99.90;;;;;;8423086;28;19994;-70
2023/10/05 23:49:32;;;;;;;;;;;14.60;99.90;;;;;;8406682;28;19939;-70
2023/10/05 23:53:34;;;;;;;;;;;14.70;99.90;;;;;;8417056;28;19930;-70
2023/10/05 23:57:45;;;;;;;;;;;14.60;99.90;;;;;;8402022;28;19924;-70
